SBPL/PNZ METAR and TAF weather

Enter ICAO airport designator
Station Type Date Time Source
SBPL METAR 2020/01/23 15:00 UTC NOAA

SBPL 231500Z 14002KT 9999 -RA FEW010 BKN020 OVC070 25/23 Q1014


Station Type Date Time Source
SBPL Decoded METAR 2020/01/23 15:00 UTC NOAA

Petrolina , Brazil (SBPL) 09-21S 040-33W
Jan 23, 2020 - 10:00 AM EST / 2020.01.23 1500 UTC
Wind: from the SE (140 degrees) at 2 MPH (2 KT):0
Visibility: greater than 7 mile(s):0
Sky conditions: overcast
Weather: light rain
Temperature: 77 F (25 C)
Dew Point: 73 F (23 C)
Relative Humidity: 88%
Pressure (altimeter): 29.94 in. Hg (1014 hPa)
ob: SBPL 231500Z 14002KT 9999 -RA FEW010 BKN020 OVC070 25/23 Q1014
cycle: 15

Station Type Date Time Source
SBPL TAF 2020/01/23 12:48 UTC NOAA

TAF TAF SBPL 231000Z 2312/2412 15008KT 9999 BKN025 TX28/2318Z TN25/2407Z
BECMG 2315/2317 12005KT FEW040
BECMG 2321/2323 21005KT
RMK PEH

Example: see airport list